Aérodrome :
LOGIN :

S'inscrire | Disclaimer

   EN    FR    IT 

 










Légende :    VFR   VFR Marginal   IFR   IFR Intensif   IFR Très Intensif
Visi : 
Plafond : 
>= 8 km
>= 3000ft
5 à 8 km
1000 à 3000 ft
1500m à 5 km
500 à 1000 ft
800 à 1500m
200 à 500 ft
< 800m
< 200 ft
Symboles :   Orages  Brouillard  Fortes neiges  Fortes précipitations  Vent > 20 kt
SIGMETs :   Divers  Orages  Givrage  Turbulence  Onde Orograph.  Cendres Volcan.







- Altitude de l'aérodrome : 461 ft
- Code IATA : WIE


ETOU - Wiesbaden Army

DERNIER METAR :
  • 190256Z AUTO 26006KT 9999 BKN100 13/12 A3004 RMK AO2 SLP173 T01310120 50006 $

METARs EXPIRÉS :
  • 190156Z AUTO 30004KT 9999 CLR 13/12 A3003 RMK AO2 SLP168 T01340120 $
  • 190056Z AUTO 27007KT 9999 BKN120 15/13 A3003 RMK AO2 SLP167 T01450132 $

TAF TAF ETOU
Valide du 18 à 03h jusqu'au 19 à 09h UTC


180749Z 1803/1909 19006KT 9999 BKN030 QNH2999INS
BECMG 1805/1806 19006KT 9000 -SHRA BKN030 OVC050 QNH2998INS
TEMPO 1811/1816 25010G20KT
BECMG 1822/1823 23006KT 8000 BR BKN020 QNH3003INS
BECMG 1908/1909 26009KT 9999 NSW SKC QNH3010INS TX21/1809Z TN13/1903Z LAST NO AMDS AFT 1808 NEXT 2003
Pas de NOTAMs connus pour ce terrain.



MET'MAP, la Météo Aéronautique d'un coup d'oeil ! - Copyright ORBIFLY Décembre 2007 - Disclaimer

ORBIFLY MET'MAP TEAM :

Programmation & Développement : Alexandra Zaïnal
Conception & Développement : Baudouin d'Aumeries
Co-Programmation & Développement : Marc-Olivier Méhu
Soutien technique & logistique : Manuel Goepfert

Contact : metmap@orbifly.com




SOURCES & CREDITS :

   NOAA